sensor_id;sensor_type;location;lat;lon;timestamp;temperature;humidity
11597;DHT22;5854;48.072;16.286;2024-03-23T00:54:15;13.50;53.90
11597;DHT22;5854;48.072;16.286;2024-03-23T00:56:42;13.50;53.20
11597;DHT22;5854;48.072;16.286;2024-03-23T00:59:08;13.40;53.40
11597;DHT22;5854;48.072;16.286;2024-03-23T01:01:36;13.40;53.90
11597;DHT22;5854;48.072;16.286;2024-03-23T01:04:03;13.50;53.80
11597;DHT22;5854;48.072;16.286;2024-03-23T01:06:30;13.50;53.40
11597;DHT22;5854;48.072;16.286;2024-03-23T01:08:56;13.40;53.50
11597;DHT22;5854;48.072;16.286;2024-03-23T01:11:25;13.30;53.90
11597;DHT22;5854;48.072;16.286;2024-03-23T01:13:53;13.40;53.90
11597;DHT22;5854;48.072;16.286;2024-03-23T01:16:21;13.40;53.40
11597;DHT22;5854;48.072;16.286;2024-03-23T01:18:47;13.30;53.60
11597;DHT22;5854;48.072;16.286;2024-03-23T01:21:15;13.30;54.00
11597;DHT22;5854;48.072;16.286;2024-03-23T01:23:41;13.30;54.00
11597;DHT22;5854;48.072;16.286;2024-03-23T01:26:08;13.30;53.90
11597;DHT22;5854;48.072;16.286;2024-03-23T01:28:36;13.30;54.20
11597;DHT22;5854;48.072;16.286;2024-03-23T01:31:03;13.20;53.80
11597;DHT22;5854;48.072;16.286;2024-03-23T01:33:30;13.30;54.00
11597;DHT22;5854;48.072;16.286;2024-03-23T01:35:57;13.30;53.50
11597;DHT22;5854;48.072;16.286;2024-03-23T01:38:23;13.20;54.00
11597;DHT22;5854;48.072;16.286;2024-03-23T01:40:56;13.20;54.10
11597;DHT22;5854;48.072;16.286;2024-03-23T01:43:23;13.20;54.50
11597;DHT22;5854;48.072;16.286;2024-03-23T01:45:52;13.20;53.70
11597;DHT22;5854;48.072;16.286;2024-03-23T01:48:19;13.10;53.40
11597;DHT22;5854;48.072;16.286;2024-03-23T01:50:47;13.10;54.60
11597;DHT22;5854;48.072;16.286;2024-03-23T01:53:14;13.20;54.80
11597;DHT22;5854;48.072;16.286;2024-03-23T01:55:43;13.10;54.60
11597;DHT22;5854;48.072;16.286;2024-03-23T01:58:09;13.00;54.40
11597;DHT22;5854;48.072;16.286;2024-03-23T02:00:36;13.10;54.90
11597;DHT22;5854;48.072;16.286;2024-03-23T02:03:22;13.10;54.60
11597;DHT22;5854;48.072;16.286;2024-03-23T02:05:50;13.10;54.00
11597;DHT22;5854;48.072;16.286;2024-03-23T02:08:17;13.10;54.60
11597;DHT22;5854;48.072;16.286;2024-03-23T02:10:44;13.10;54.30
11597;DHT22;5854;48.072;16.286;2024-03-23T02:13:11;13.00;54.40
11597;DHT22;5854;48.072;16.286;2024-03-23T02:15:39;13.00;54.80
11597;DHT22;5854;48.072;16.286;2024-03-23T02:18:07;13.00;54.70
11597;DHT22;5854;48.072;16.286;2024-03-23T02:20:35;13.00;53.80
11597;DHT22;5854;48.072;16.286;2024-03-23T02:23:02;13.00;54.00
11597;DHT22;5854;48.072;16.286;2024-03-23T02:25:31;12.90;54.70
11597;DHT22;5854;48.072;16.286;2024-03-23T02:27:58;13.00;54.50
11597;DHT22;5854;48.072;16.286;2024-03-23T02:30:25;12.90;54.60
11597;DHT22;5854;48.072;16.286;2024-03-23T02:32:51;13.00;54.70
11597;DHT22;5854;48.072;16.286;2024-03-23T02:35:19;12.90;54.80
11597;DHT22;5854;48.072;16.286;2024-03-23T02:37:46;13.00;54.70
11597;DHT22;5854;48.072;16.286;2024-03-23T02:40:15;12.90;54.80
11597;DHT22;5854;48.072;16.286;2024-03-23T02:42:42;12.90;54.20
11597;DHT22;5854;48.072;16.286;2024-03-23T02:45:09;12.90;54.80
11597;DHT22;5854;48.072;16.286;2024-03-23T02:47:35;12.90;54.80
11597;DHT22;5854;48.072;16.286;2024-03-23T02:50:04;12.80;54.60
11597;DHT22;5854;48.072;16.286;2024-03-23T02:52:30;12.80;55.00
11597;DHT22;5854;48.072;16.286;2024-03-23T02:54:58;12.80;54.50
11597;DHT22;5854;48.072;16.286;2024-03-23T02:57:26;12.70;55.00
11597;DHT22;5854;48.072;16.286;2024-03-23T02:59:53;12.80;55.00
11597;DHT22;5854;48.072;16.286;2024-03-23T03:02:20;12.80;55.10
11597;DHT22;5854;48.072;16.286;2024-03-23T03:04:47;12.80;55.00
11597;DHT22;5854;48.072;16.286;2024-03-23T03:07:14;12.70;54.70
11597;DHT22;5854;48.072;16.286;2024-03-23T03:09:41;12.70;54.80
11597;DHT22;5854;48.072;16.286;2024-03-23T03:12:08;12.70;54.80
11597;DHT22;5854;48.072;16.286;2024-03-23T03:14:37;12.70;55.10
11597;DHT22;5854;48.072;16.286;2024-03-23T03:17:03;12.70;54.30
11597;DHT22;5854;48.072;16.286;2024-03-23T03:19:30;12.60;54.80
11597;DHT22;5854;48.072;16.286;2024-03-23T03:21:58;12.70;55.20
11597;DHT22;5854;48.072;16.286;2024-03-23T03:24:25;12.60;54.90
11597;DHT22;5854;48.072;16.286;2024-03-23T03:26:51;12.60;54.80
11597;DHT22;5854;48.072;16.286;2024-03-23T03:29:18;12.60;54.70
11597;DHT22;5854;48.072;16.286;2024-03-23T03:31:46;12.70;55.20
11597;DHT22;5854;48.072;16.286;2024-03-23T03:34:15;12.70;55.00
11597;DHT22;5854;48.072;16.286;2024-03-23T03:36:41;12.60;54.70
11597;DHT22;5854;48.072;16.286;2024-03-23T03:39:09;12.50;54.70
11597;DHT22;5854;48.072;16.286;2024-03-23T03:41:35;12.50;55.30
11597;DHT22;5854;48.072;16.286;2024-03-23T03:44:03;12.60;55.10
11597;DHT22;5854;48.072;16.286;2024-03-23T03:46:29;12.50;55.10
11597;DHT22;5854;48.072;16.286;2024-03-23T03:48:57;12.40;55.10
11597;DHT22;5854;48.072;16.286;2024-03-23T03:51:24;12.50;56.10
11597;DHT22;5854;48.072;16.286;2024-03-23T03:53:51;12.50;55.10
11597;DHT22;5854;48.072;16.286;2024-03-23T03:56:17;12.40;55.40
11597;DHT22;5854;48.072;16.286;2024-03-23T03:58:45;12.50;55.80
11597;DHT22;5854;48.072;16.286;2024-03-23T04:01:11;12.40;55.90
11597;DHT22;5854;48.072;16.286;2024-03-23T04:03:38;12.40;55.90
11597;DHT22;5854;48.072;16.286;2024-03-23T04:06:10;12.50;55.40
11597;DHT22;5854;48.072;16.286;2024-03-23T04:08:37;12.40;55.60
11597;DHT22;5854;48.072;16.286;2024-03-23T04:11:04;12.50;55.80
11597;DHT22;5854;48.072;16.286;2024-03-23T04:13:31;12.50;55.70
11597;DHT22;5854;48.072;16.286;2024-03-23T04:15:57;12.40;55.80
11597;DHT22;5854;48.072;16.286;2024-03-23T04:18:24;12.50;56.00
11597;DHT22;5854;48.072;16.286;2024-03-23T04:20:51;12.40;56.10
11597;DHT22;5854;48.072;16.286;2024-03-23T04:23:20;12.30;56.70
11597;DHT22;5854;48.072;16.286;2024-03-23T04:25:47;12.40;56.50
11597;DHT22;5854;48.072;16.286;2024-03-23T04:28:14;12.40;56.20
11597;DHT22;5854;48.072;16.286;2024-03-23T04:30:40;12.40;56.30
11597;DHT22;5854;48.072;16.286;2024-03-23T04:33:07;12.30;56.40
11597;DHT22;5854;48.072;16.286;2024-03-23T04:35:34;12.30;56.60
11597;DHT22;5854;48.072;16.286;2024-03-23T04:38:01;12.40;56.60
11597;DHT22;5854;48.072;16.286;2024-03-23T04:40:30;12.40;56.50
11597;DHT22;5854;48.072;16.286;2024-03-23T04:42:56;12.40;56.40
11597;DHT22;5854;48.072;16.286;2024-03-23T04:45:24;12.40;56.20
11597;DHT22;5854;48.072;16.286;2024-03-23T04:47:51;12.30;56.90
11597;DHT22;5854;48.072;16.286;2024-03-23T04:50:21;12.30;56.60
11597;DHT22;5854;48.072;16.286;2024-03-23T04:52:49;12.30;56.50
11597;DHT22;5854;48.072;16.286;2024-03-23T04:55:16;12.40;56.50
11597;DHT22;5854;48.072;16.286;2024-03-23T04:57:44;12.40;56.50
11597;DHT22;5854;48.072;16.286;2024-03-23T05:00:12;12.40;56.00
11597;DHT22;5854;48.072;16.286;2024-03-23T05:02:44;12.30;56.40
11597;DHT22;5854;48.072;16.286;2024-03-23T05:05:12;12.30;56.60
11597;DHT22;5854;48.072;16.286;2024-03-23T05:07:39;12.30;56.50
11597;DHT22;5854;48.072;16.286;2024-03-23T05:10:09;12.30;56.20
11597;DHT22;5854;48.072;16.286;2024-03-23T05:12:36;12.30;56.30
11597;DHT22;5854;48.072;16.286;2024-03-23T05:15:05;12.20;56.80
11597;DHT22;5854;48.072;16.286;2024-03-23T05:17:33;12.20;57.10
11597;DHT22;5854;48.072;16.286;2024-03-23T05:19:59;12.30;57.00
11597;DHT22;5854;48.072;16.286;2024-03-23T05:22:27;12.20;56.60
11597;DHT22;5854;48.072;16.286;2024-03-23T05:24:53;12.20;56.90
11597;DHT22;5854;48.072;16.286;2024-03-23T05:27:20;12.30;56.70
11597;DHT22;5854;48.072;16.286;2024-03-23T05:29:48;12.30;56.60
11597;DHT22;5854;48.072;16.286;2024-03-23T05:32:17;12.40;56.80
11597;DHT22;5854;48.072;16.286;2024-03-23T05:34:44;12.30;56.70
11597;DHT22;5854;48.072;16.286;2024-03-23T05:37:11;12.30;56.70
11597;DHT22;5854;48.072;16.286;2024-03-23T05:39:37;12.40;56.40
11597;DHT22;5854;48.072;16.286;2024-03-23T05:42:05;12.40;56.40
11597;DHT22;5854;48.072;16.286;2024-03-23T05:44:32;12.40;57.10
11597;DHT22;5854;48.072;16.286;2024-03-23T05:46:59;12.30;56.60
11597;DHT22;5854;48.072;16.286;2024-03-23T05:49:27;12.40;57.10
11597;DHT22;5854;48.072;16.286;2024-03-23T05:51:54;12.30;56.80
11597;DHT22;5854;48.072;16.286;2024-03-23T05:54:21;12.40;56.50
11597;DHT22;5854;48.072;16.286;2024-03-23T05:56:48;12.40;56.20
11597;DHT22;5854;48.072;16.286;2024-03-23T05:59:14;12.40;56.30
11597;DHT22;5854;48.072;16.286;2024-03-23T06:01:41;12.40;56.80
11597;DHT22;5854;48.072;16.286;2024-03-23T06:04:08;12.50;56.60
11597;DHT22;5854;48.072;16.286;2024-03-23T06:06:36;12.50;57.00
11597;DHT22;5854;48.072;16.286;2024-03-23T06:09:02;12.50;57.00
11597;DHT22;5854;48.072;16.286;2024-03-23T06:11:30;12.50;56.90
11597;DHT22;5854;48.072;16.286;2024-03-23T06:13:56;12.50;56.90
11597;DHT22;5854;48.072;16.286;2024-03-23T06:16:23;12.60;56.50
11597;DHT22;5854;48.072;16.286;2024-03-23T06:18:50;12.60;56.30
11597;DHT22;5854;48.072;16.286;2024-03-23T06:21:17;12.50;57.20
11597;DHT22;5854;48.072;16.286;2024-03-23T06:23:45;12.60;55.90
11597;DHT22;5854;48.072;16.286;2024-03-23T06:26:17;12.60;56.90
11597;DHT22;5854;48.072;16.286;2024-03-23T06:28:43;12.70;56.00
11597;DHT22;5854;48.072;16.286;2024-03-23T06:31:11;12.60;56.10
11597;DHT22;5854;48.072;16.286;2024-03-23T06:33:38;12.60;56.00
11597;DHT22;5854;48.072;16.286;2024-03-23T06:36:07;12.70;55.80
11597;DHT22;5854;48.072;16.286;2024-03-23T06:38:35;12.70;56.80
11597;DHT22;5854;48.072;16.286;2024-03-23T06:41:04;12.70;55.60
11597;DHT22;5854;48.072;16.286;2024-03-23T06:43:30;12.70;55.40
11597;DHT22;5854;48.072;16.286;2024-03-23T06:45:58;12.70;55.70
11597;DHT22;5854;48.072;16.286;2024-03-23T06:48:24;12.70;56.30
11597;DHT22;5854;48.072;16.286;2024-03-23T06:50:56;12.70;56.20
11597;DHT22;5854;48.072;16.286;2024-03-23T06:53:22;12.70;58.40
11597;DHT22;5854;48.072;16.286;2024-03-23T06:55:51;12.70;56.70
11597;DHT22;5854;48.072;16.286;2024-03-23T06:58:20;12.70;59.70
11597;DHT22;5854;48.072;16.286;2024-03-23T07:00:48;12.70;56.10
11597;DHT22;5854;48.072;16.286;2024-03-23T07:03:15;12.70;57.60
11597;DHT22;5854;48.072;16.286;2024-03-23T07:05:43;12.70;57.70
11597;DHT22;5854;48.072;16.286;2024-03-23T07:08:09;12.70;56.20
11597;DHT22;5854;48.072;16.286;2024-03-23T07:10:39;12.70;55.50
11597;DHT22;5854;48.072;16.286;2024-03-23T07:13:05;12.70;55.40
11597;DHT22;5854;48.072;16.286;2024-03-23T07:15:34;12.80;55.00
11597;DHT22;5854;48.072;16.286;2024-03-23T07:18:00;12.80;55.30
11597;DHT22;5854;48.072;16.286;2024-03-23T07:20:28;12.80;55.10
11597;DHT22;5854;48.072;16.286;2024-03-23T07:22:56;12.80;55.30
11597;DHT22;5854;48.072;16.286;2024-03-23T07:25:23;12.80;56.30
11597;DHT22;5854;48.072;16.286;2024-03-23T07:27:52;12.80;56.10
11597;DHT22;5854;48.072;16.286;2024-03-23T07:30:19;12.80;57.00
11597;DHT22;5854;48.072;16.286;2024-03-23T07:32:47;12.90;56.80
11597;DHT22;5854;48.072;16.286;2024-03-23T07:35:14;12.90;55.90
11597;DHT22;5854;48.072;16.286;2024-03-23T07:37:42;13.00;55.90
11597;DHT22;5854;48.072;16.286;2024-03-23T07:40:10;13.00;55.30
11597;DHT22;5854;48.072;16.286;2024-03-23T07:42:37;13.10;56.80
11597;DHT22;5854;48.072;16.286;2024-03-23T07:45:05;13.10;55.40
11597;DHT22;5854;48.072;16.286;2024-03-23T07:47:32;13.20;54.90
11597;DHT22;5854;48.072;16.286;2024-03-23T07:50:00;13.30;54.70
11597;DHT22;5854;48.072;16.286;2024-03-23T07:52:28;13.40;55.30
11597;DHT22;5854;48.072;16.286;2024-03-23T07:54:55;13.40;55.40
11597;DHT22;5854;48.072;16.286;2024-03-23T07:57:22;13.70;54.50
11597;DHT22;5854;48.072;16.286;2024-03-23T07:59:49;14.00;55.40
11597;DHT22;5854;48.072;16.286;2024-03-23T08:02:17;14.20;53.70
11597;DHT22;5854;48.072;16.286;2024-03-23T08:04:43;14.40;54.30
11597;DHT22;5854;48.072;16.286;2024-03-23T08:07:12;14.50;54.00
11597;DHT22;5854;48.072;16.286;2024-03-23T08:09:38;14.70;51.20
11597;DHT22;5854;48.072;16.286;2024-03-23T08:12:06;14.60;51.70
11597;DHT22;5854;48.072;16.286;2024-03-23T08:14:32;14.70;50.30
11597;DHT22;5854;48.072;16.286;2024-03-23T08:17:00;14.80;47.90
11597;DHT22;5854;48.072;16.286;2024-03-23T08:19:26;14.80;49.00
11597;DHT22;5854;48.072;16.286;2024-03-23T08:21:53;14.70;49.50
11597;DHT22;5854;48.072;16.286;2024-03-23T08:24:21;14.60;51.70
11597;DHT22;5854;48.072;16.286;2024-03-23T08:26:48;15.00;52.50
11597;DHT22;5854;48.072;16.286;2024-03-23T08:29:15;15.20;49.90
11597;DHT22;5854;48.072;16.286;2024-03-23T08:31:42;15.30;48.30
11597;DHT22;5854;48.072;16.286;2024-03-23T08:34:09;15.50;47.90
11597;DHT22;5854;48.072;16.286;2024-03-23T08:36:36;15.60;48.40
11597;DHT22;5854;48.072;16.286;2024-03-23T08:39:02;15.70;47.40
11597;DHT22;5854;48.072;16.286;2024-03-23T08:41:31;15.90;46.70
11597;DHT22;5854;48.072;16.286;2024-03-23T08:43:57;16.00;47.40
11597;DHT22;5854;48.072;16.286;2024-03-23T08:46:24;16.30;46.20
11597;DHT22;5854;48.072;16.286;2024-03-23T08:48:51;16.20;46.50
11597;DHT22;5854;48.072;16.286;2024-03-23T08:51:18;16.20;45.70
11597;DHT22;5854;48.072;16.286;2024-03-23T08:53:47;16.10;46.60
11597;DHT22;5854;48.072;16.286;2024-03-23T08:56:14;16.80;45.30
11597;DHT22;5854;48.072;16.286;2024-03-23T08:58:43;17.00;40.80
11597;DHT22;5854;48.072;16.286;2024-03-23T09:01:11;16.90;41.60
11597;DHT22;5854;48.072;16.286;2024-03-23T09:03:38;16.90;41.20
11597;DHT22;5854;48.072;16.286;2024-03-23T09:06:07;16.80;42.60
11597;DHT22;5854;48.072;16.286;2024-03-23T09:08:34;16.80;42.80
11597;DHT22;5854;48.072;16.286;2024-03-23T09:11:04;17.10;43.30
11597;DHT22;5854;48.072;16.286;2024-03-23T09:13:32;17.20;43.30
11597;DHT22;5854;48.072;16.286;2024-03-23T09:16:01;17.30;43.10
11597;DHT22;5854;48.072;16.286;2024-03-23T09:18:27;17.20;44.10
11597;DHT22;5854;48.072;16.286;2024-03-23T09:20:55;17.20;45.00
11597;DHT22;5854;48.072;16.286;2024-03-23T09:23:22;17.40;43.50
11597;DHT22;5854;48.072;16.286;2024-03-23T09:25:49;17.20;44.50
11597;DHT22;5854;48.072;16.286;2024-03-23T09:28:16;17.40;43.30
11597;DHT22;5854;48.072;16.286;2024-03-23T09:30:43;17.80;40.50
11597;DHT22;5854;48.072;16.286;2024-03-23T09:33:11;18.30;40.40
11597;DHT22;5854;48.072;16.286;2024-03-23T09:35:39;18.60;36.20
11597;DHT22;5854;48.072;16.286;2024-03-23T09:38:05;18.80;35.30
11597;DHT22;5854;48.072;16.286;2024-03-23T09:40:34;18.90;34.30
11597;DHT22;5854;48.072;16.286;2024-03-23T09:43:06;18.90;32.30
11597;DHT22;5854;48.072;16.286;2024-03-23T09:45:38;19.10;32.80
11597;DHT22;5854;48.072;16.286;2024-03-23T09:48:06;19.00;34.30
11597;DHT22;5854;48.072;16.286;2024-03-23T09:50:37;19.00;35.60
11597;DHT22;5854;48.072;16.286;2024-03-23T09:53:04;19.00;34.00
11597;DHT22;5854;48.072;16.286;2024-03-23T09:55:31;19.00;34.60
11597;DHT22;5854;48.072;16.286;2024-03-23T09:57:57;19.20;35.70
11597;DHT22;5854;48.072;16.286;2024-03-23T10:00:24;19.80;34.30
11597;DHT22;5854;48.072;16.286;2024-03-23T10:02:51;20.00;32.40
11597;DHT22;5854;48.072;16.286;2024-03-23T10:05:23;20.00;32.80
11597;DHT22;5854;48.072;16.286;2024-03-23T10:07:50;19.80;35.10
11597;DHT22;5854;48.072;16.286;2024-03-23T10:10:17;19.60;34.30
11597;DHT22;5854;48.072;16.286;2024-03-23T10:12:45;19.80;35.80
11597;DHT22;5854;48.072;16.286;2024-03-23T10:15:18;19.80;35.60
11597;DHT22;5854;48.072;16.286;2024-03-23T10:17:45;19.70;36.50
11597;DHT22;5854;48.072;16.286;2024-03-23T10:20:15;19.40;36.70
11597;DHT22;5854;48.072;16.286;2024-03-23T10:22:46;19.30;35.10
11597;DHT22;5854;48.072;16.286;2024-03-23T10:25:14;19.40;33.40
11597;DHT22;5854;48.072;16.286;2024-03-23T10:27:40;19.70;33.40
11597;DHT22;5854;48.072;16.286;2024-03-23T10:30:10;19.80;33.90
11597;DHT22;5854;48.072;16.286;2024-03-23T10:32:38;19.90;35.40
11597;DHT22;5854;48.072;16.286;2024-03-23T10:35:15;19.60;36.20
11597;DHT22;5854;48.072;16.286;2024-03-23T10:37:45;19.20;34.80
11597;DHT22;5854;48.072;16.286;2024-03-23T10:40:15;19.50;36.60
11597;DHT22;5854;48.072;16.286;2024-03-23T10:42:44;19.50;36.00
11597;DHT22;5854;48.072;16.286;2024-03-23T10:45:10;19.50;37.10
11597;DHT22;5854;48.072;16.286;2024-03-23T10:47:38;19.50;33.60
11597;DHT22;5854;48.072;16.286;2024-03-23T10:50:05;19.70;37.70
11597;DHT22;5854;48.072;16.286;2024-03-23T10:52:32;19.90;32.60
11597;DHT22;5854;48.072;16.286;2024-03-23T10:55:02;20.00;31.70
11597;DHT22;5854;48.072;16.286;2024-03-23T10:57:34;20.60;32.00
11597;DHT22;5854;48.072;16.286;2024-03-23T11:00:05;20.40;29.30
11597;DHT22;5854;48.072;16.286;2024-03-23T11:02:33;20.20;29.70
11597;DHT22;5854;48.072;16.286;2024-03-23T11:04:59;20.50;30.10
11597;DHT22;5854;48.072;16.286;2024-03-23T11:07:30;20.40;31.40
11597;DHT22;5854;48.072;16.286;2024-03-23T11:09:58;20.10;31.40
11597;DHT22;5854;48.072;16.286;2024-03-23T11:12:29;19.90;33.70
11597;DHT22;5854;48.072;16.286;2024-03-23T11:15:00;19.80;33.70
11597;DHT22;5854;48.072;16.286;2024-03-23T11:17:29;19.80;33.80
11597;DHT22;5854;48.072;16.286;2024-03-23T11:19:56;20.20;35.40
11597;DHT22;5854;48.072;16.286;2024-03-23T11:22:43;20.20;32.60
11597;DHT22;5854;48.072;16.286;2024-03-23T11:25:20;20.60;32.00
11597;DHT22;5854;48.072;16.286;2024-03-23T11:27:50;20.90;32.70
11597;DHT22;5854;48.072;16.286;2024-03-23T11:30:18;21.00;31.60
11597;DHT22;5854;48.072;16.286;2024-03-23T11:32:48;20.90;32.10
11597;DHT22;5854;48.072;16.286;2024-03-23T11:35:28;20.70;31.70
11597;DHT22;5854;48.072;16.286;2024-03-23T11:38:08;20.50;30.40
11597;DHT22;5854;48.072;16.286;2024-03-23T11:40:37;20.40;31.30
11597;DHT22;5854;48.072;16.286;2024-03-23T11:43:06;20.10;30.10
11597;DHT22;5854;48.072;16.286;2024-03-23T11:45:37;20.10;30.40
11597;DHT22;5854;48.072;16.286;2024-03-23T11:48:07;20.40;31.20
11597;DHT22;5854;48.072;16.286;2024-03-23T11:50:36;20.30;30.40
11597;DHT22;5854;48.072;16.286;2024-03-23T11:53:12;20.00;35.40
11597;DHT22;5854;48.072;16.286;2024-03-23T11:55:46;20.00;31.00
11597;DHT22;5854;48.072;16.286;2024-03-23T11:58:14;19.70;31.50
11597;DHT22;5854;48.072;16.286;2024-03-23T12:00:41;19.60;34.10
11597;DHT22;5854;48.072;16.286;2024-03-23T12:03:08;19.50;34.40
11597;DHT22;5854;48.072;16.286;2024-03-23T12:05:36;19.40;34.00
11597;DHT22;5854;48.072;16.286;2024-03-23T12:08:19;19.30;35.90
11597;DHT22;5854;48.072;16.286;2024-03-23T12:10:49;19.30;36.60
11597;DHT22;5854;48.072;16.286;2024-03-23T12:13:18;19.30;37.70
11597;DHT22;5854;48.072;16.286;2024-03-23T12:15:46;19.20;38.30
11597;DHT22;5854;48.072;16.286;2024-03-23T12:18:14;19.10;40.10
11597;DHT22;5854;48.072;16.286;2024-03-23T12:20:40;18.90;40.90
11597;DHT22;5854;48.072;16.286;2024-03-23T12:23:09;18.90;39.40
11597;DHT22;5854;48.072;16.286;2024-03-23T12:25:37;18.70;41.90
11597;DHT22;5854;48.072;16.286;2024-03-23T12:28:07;18.40;44.60
11597;DHT22;5854;48.072;16.286;2024-03-23T12:30:35;18.20;45.40
11597;DHT22;5854;48.072;16.286;2024-03-23T12:33:03;18.00;45.20
11597;DHT22;5854;48.072;16.286;2024-03-23T12:35:29;17.80;47.00
11597;DHT22;5854;48.072;16.286;2024-03-23T12:37:57;17.70;49.40
11597;DHT22;5854;48.072;16.286;2024-03-23T12:40:23;17.60;48.60
11597;DHT22;5854;48.072;16.286;2024-03-23T12:42:50;17.50;49.70
11597;DHT22;5854;48.072;16.286;2024-03-23T12:45:18;17.40;59.90
11597;DHT22;5854;48.072;16.286;2024-03-23T12:47:45;17.20;52.90
11597;DHT22;5854;48.072;16.286;2024-03-23T12:50:11;17.10;50.40
11597;DHT22;5854;48.072;16.286;2024-03-23T12:52:39;17.10;49.00
11597;DHT22;5854;48.072;16.286;2024-03-23T12:55:05;16.90;50.40
11597;DHT22;5854;48.072;16.286;2024-03-23T12:57:33;16.90;50.00
11597;DHT22;5854;48.072;16.286;2024-03-23T13:00:00;16.50;50.70
11597;DHT22;5854;48.072;16.286;2024-03-23T13:02:29;16.40;53.20
11597;DHT22;5854;48.072;16.286;2024-03-23T13:04:55;16.40;51.40
11597;DHT22;5854;48.072;16.286;2024-03-23T13:07:23;16.30;52.80
11597;DHT22;5854;48.072;16.286;2024-03-23T13:09:50;16.40;51.30
11597;DHT22;5854;48.072;16.286;2024-03-23T13:12:20;16.20;51.50
11597;DHT22;5854;48.072;16.286;2024-03-23T13:14:50;16.20;51.70
11597;DHT22;5854;48.072;16.286;2024-03-23T13:17:17;16.20;51.50
11597;DHT22;5854;48.072;16.286;2024-03-23T13:19:45;15.80;52.50
11597;DHT22;5854;48.072;16.286;2024-03-23T13:22:12;15.70;53.40
11597;DHT22;5854;48.072;16.286;2024-03-23T13:24:38;15.70;52.80
11597;DHT22;5854;48.072;16.286;2024-03-23T13:27:06;15.40;53.50
11597;DHT22;5854;48.072;16.286;2024-03-23T13:29:33;15.60;52.20
11597;DHT22;5854;48.072;16.286;2024-03-23T13:32:01;15.40;54.10
11597;DHT22;5854;48.072;16.286;2024-03-23T13:34:27;15.30;53.70
11597;DHT22;5854;48.072;16.286;2024-03-23T13:36:56;15.20;54.10
11597;DHT22;5854;48.072;16.286;2024-03-23T13:39:23;14.80;55.50
11597;DHT22;5854;48.072;16.286;2024-03-23T13:41:53;14.70;56.70
11597;DHT22;5854;48.072;16.286;2024-03-23T13:44:20;15.10;54.80
11597;DHT22;5854;48.072;16.286;2024-03-23T13:46:47;14.60;56.80
11597;DHT22;5854;48.072;16.286;2024-03-23T13:49:25;14.40;57.10
11597;DHT22;5854;48.072;16.286;2024-03-23T13:51:53;14.30;58.30
11597;DHT22;5854;48.072;16.286;2024-03-23T13:54:21;14.80;56.50
11597;DHT22;5854;48.072;16.286;2024-03-23T13:56:50;14.90;55.40
11597;DHT22;5854;48.072;16.286;2024-03-23T13:59:16;14.80;55.70
11597;DHT22;5854;48.072;16.286;2024-03-23T14:01:44;14.90;53.80
11597;DHT22;5854;48.072;16.286;2024-03-23T14:04:11;14.90;55.60
11597;DHT22;5854;48.072;16.286;2024-03-23T14:06:38;14.60;55.40
11597;DHT22;5854;48.072;16.286;2024-03-23T14:09:05;14.60;55.70
11597;DHT22;5854;48.072;16.286;2024-03-23T14:11:35;14.50;56.40
11597;DHT22;5854;48.072;16.286;2024-03-23T14:14:02;14.40;55.10
11597;DHT22;5854;48.072;16.286;2024-03-23T14:16:30;14.60;55.40
11597;DHT22;5854;48.072;16.286;2024-03-23T14:18:57;14.60;54.70
11597;DHT22;5854;48.072;16.286;2024-03-23T14:21:24;14.60;54.90
11597;DHT22;5854;48.072;16.286;2024-03-23T14:23:51;14.50;55.20
11597;DHT22;5854;48.072;16.286;2024-03-23T14:26:19;14.10;54.60
11597;DHT22;5854;48.072;16.286;2024-03-23T14:28:47;13.80;55.90
11597;DHT22;5854;48.072;16.286;2024-03-23T14:31:14;14.10;55.90
11597;DHT22;5854;48.072;16.286;2024-03-23T14:33:41;14.20;55.50
11597;DHT22;5854;48.072;16.286;2024-03-23T14:36:12;14.10;53.50
11597;DHT22;5854;48.072;16.286;2024-03-23T14:38:38;14.30;56.40
11597;DHT22;5854;48.072;16.286;2024-03-23T14:41:06;14.00;53.50
11597;DHT22;5854;48.072;16.286;2024-03-23T14:43:32;13.90;55.60
11597;DHT22;5854;48.072;16.286;2024-03-23T14:46:11;14.00;56.40
11597;DHT22;5854;48.072;16.286;2024-03-23T14:48:38;14.00;54.70
11597;DHT22;5854;48.072;16.286;2024-03-23T14:51:07;13.90;53.90
11597;DHT22;5854;48.072;16.286;2024-03-23T14:53:34;13.40;56.10
11597;DHT22;5854;48.072;16.286;2024-03-23T14:56:04;13.60;55.70
11597;DHT22;5854;48.072;16.286;2024-03-23T14:58:30;13.40;57.60
11597;DHT22;5854;48.072;16.286;2024-03-23T15:01:01;13.80;57.20
11597;DHT22;5854;48.072;16.286;2024-03-23T15:03:29;13.40;56.60
11597;DHT22;5854;48.072;16.286;2024-03-23T15:05:57;13.30;54.30
11597;DHT22;5854;48.072;16.286;2024-03-23T15:08:25;12.80;57.40
11597;DHT22;5854;48.072;16.286;2024-03-23T15:10:53;12.80;58.00
11597;DHT22;5854;48.072;16.286;2024-03-23T15:13:19;13.00;57.60
11597;DHT22;5854;48.072;16.286;2024-03-23T15:15:48;13.20;57.10
11597;DHT22;5854;48.072;16.286;2024-03-23T15:18:17;12.90;55.80
11597;DHT22;5854;48.072;16.286;2024-03-23T15:20:53;13.30;57.00
11597;DHT22;5854;48.072;16.286;2024-03-23T15:23:19;12.90;53.80
11597;DHT22;5854;48.072;16.286;2024-03-23T15:25:54;12.90;57.90
11597;DHT22;5854;48.072;16.286;2024-03-23T15:28:20;12.60;55.90
11597;DHT22;5854;48.072;16.286;2024-03-23T15:30:48;12.80;57.00
11597;DHT22;5854;48.072;16.286;2024-03-23T15:33:14;12.50;55.90
11597;DHT22;5854;48.072;16.286;2024-03-23T15:35:41;12.70;55.60
11597;DHT22;5854;48.072;16.286;2024-03-23T15:38:09;12.60;57.80
11597;DHT22;5854;48.072;16.286;2024-03-23T15:40:36;12.30;58.40
11597;DHT22;5854;48.072;16.286;2024-03-23T15:43:03;12.10;60.50
11597;DHT22;5854;48.072;16.286;2024-03-23T15:45:30;12.20;56.30
11597;DHT22;5854;48.072;16.286;2024-03-23T15:47:56;12.10;59.40
11597;DHT22;5854;48.072;16.286;2024-03-23T15:50:23;12.40;58.20
11597;DHT22;5854;48.072;16.286;2024-03-23T15:52:50;12.00;60.10
11597;DHT22;5854;48.072;16.286;2024-03-23T15:55:18;12.10;57.00
11597;DHT22;5854;48.072;16.286;2024-03-23T15:57:45;12.40;57.10
11597;DHT22;5854;48.072;16.286;2024-03-23T16:00:13;12.00;52.30
11597;DHT22;5854;48.072;16.286;2024-03-23T16:02:39;11.60;54.70
11597;DHT22;5854;48.072;16.286;2024-03-23T16:05:07;11.80;54.60
11597;DHT22;5854;48.072;16.286;2024-03-23T16:07:36;11.70;54.90
11597;DHT22;5854;48.072;16.286;2024-03-23T16:10:05;11.60;59.00
11597;DHT22;5854;48.072;16.286;2024-03-23T16:12:36;11.80;56.70
11597;DHT22;5854;48.072;16.286;2024-03-23T16:15:04;12.30;56.60
11597;DHT22;5854;48.072;16.286;2024-03-23T16:17:31;12.40;56.60
11597;DHT22;5854;48.072;16.286;2024-03-23T16:20:02;12.10;56.90
11597;DHT22;5854;48.072;16.286;2024-03-23T16:22:29;12.00;58.10
11597;DHT22;5854;48.072;16.286;2024-03-23T16:24:56;12.10;56.10
11597;DHT22;5854;48.072;16.286;2024-03-23T16:27:23;11.70;55.00